Terminal Aerodrome Forecast
Issued by NWS Wichita, KS

Home | Current Version | Previous Version | Text Only | Print | Product List | Glossary On
Versions: 1 2 3 4 5 6 7 8 9 10 11 12 13 14 15 16 17
000
FTUS43 KICT 281538 AAB
TAFICT
TAF AMD
KICT 281538Z 2816/2912 25007KT P6SM BKN015
      TEMPO 2816/2817 SCT015 BKN040
     FM281700 28006KT P6SM SCT050
     FM282300 01006KT P6SM SCT020 BKN150
     FM290300 04010KT P6SM VCSH OVC015
     FM290600 02015G23KT P6SM SHRA OVC010
     FM291100 02020G28KT 5SM SHRA OVC008=

USA.gov is the U.S. government's official web portal to all federal, state and local government web resources and services.